Terminal Aerodrome Forecast
Issued by NWS Tampa Bay Area, FL

Home | Current Version | Previous Version | Text Only | Print | Product List | Glossary On
Versions: 1 2 3 4 5 6 7 8 9 10 11 12 13 14 15 16 17
000
FTUS42 KTBW 092300
TAFFMY
TAF
KFMY 092338Z 1000/1024 VRB03KT P6SM BKN250
     FM101600 VRB03KT P6SM VCTS SCT025CB BKN150
     FM101900 26007KT P6SM VCTS SCT035CB BKN250=

USA.gov is the U.S. government's official web portal to all federal, state and local government web resources and services.